sensor_id;sensor_type;location;lat;lon;timestamp;temperature;humidity
35563;DHT22;21665;40.108;18.302;2023-10-31T00:02:19;19.50;99.90
35563;DHT22;21665;40.108;18.302;2023-10-31T00:04:46;19.40;99.90
35563;DHT22;21665;40.108;18.302;2023-10-31T00:07:12;19.40;99.90
35563;DHT22;21665;40.108;18.302;2023-10-31T00:09:38;19.40;99.90
35563;DHT22;21665;40.108;18.302;2023-10-31T00:12:05;19.40;99.90
35563;DHT22;21665;40.108;18.302;2023-10-31T00:14:32;19.40;99.90
35563;DHT22;21665;40.108;18.302;2023-10-31T00:16:59;19.40;99.90
35563;DHT22;21665;40.108;18.302;2023-10-31T00:19:25;19.50;99.90
35563;DHT22;21665;40.108;18.302;2023-10-31T00:21:52;19.50;99.90
35563;DHT22;21665;40.108;18.302;2023-10-31T00:24:18;19.50;99.90
35563;DHT22;21665;40.108;18.302;2023-10-31T00:26:45;19.60;99.90
35563;DHT22;21665;40.108;18.302;2023-10-31T00:29:14;19.60;99.90
35563;DHT22;21665;40.108;18.302;2023-10-31T00:31:41;19.60;99.90
35563;DHT22;21665;40.108;18.302;2023-10-31T00:34:08;19.70;99.90
35563;DHT22;21665;40.108;18.302;2023-10-31T00:36:35;19.60;99.90
35563;DHT22;21665;40.108;18.302;2023-10-31T00:39:01;19.60;99.90
35563;DHT22;21665;40.108;18.302;2023-10-31T00:41:28;19.60;99.90
35563;DHT22;21665;40.108;18.302;2023-10-31T00:43:55;19.70;99.90
35563;DHT22;21665;40.108;18.302;2023-10-31T00:46:21;19.80;99.90
35563;DHT22;21665;40.108;18.302;2023-10-31T00:48:48;19.80;99.90
35563;DHT22;21665;40.108;18.302;2023-10-31T00:51:14;19.90;99.90
35563;DHT22;21665;40.108;18.302;2023-10-31T00:53:41;19.90;99.90
35563;DHT22;21665;40.108;18.302;2023-10-31T00:56:07;19.90;99.90
35563;DHT22;21665;40.108;18.302;2023-10-31T00:58:34;19.90;99.90
35563;DHT22;21665;40.108;18.302;2023-10-31T01:01:03;19.90;99.90
35563;DHT22;21665;40.108;18.302;2023-10-31T01:03:29;19.90;99.90
35563;DHT22;21665;40.108;18.302;2023-10-31T01:05:56;19.80;99.90
35563;DHT22;21665;40.108;18.302;2023-10-31T01:08:22;19.90;99.90
35563;DHT22;21665;40.108;18.302;2023-10-31T01:10:49;19.90;99.90
35563;DHT22;21665;40.108;18.302;2023-10-31T01:13:15;19.90;99.90
35563;DHT22;21665;40.108;18.302;2023-10-31T01:15:42;19.90;99.90
35563;DHT22;21665;40.108;18.302;2023-10-31T01:18:09;19.90;99.90
35563;DHT22;21665;40.108;18.302;2023-10-31T01:20:36;19.90;99.90
35563;DHT22;21665;40.108;18.302;2023-10-31T01:23:04;19.90;99.90
35563;DHT22;21665;40.108;18.302;2023-10-31T01:25:31;19.90;99.90
35563;DHT22;21665;40.108;18.302;2023-10-31T01:27:57;19.90;99.90
35563;DHT22;21665;40.108;18.302;2023-10-31T01:30:24;19.90;99.90
35563;DHT22;21665;40.108;18.302;2023-10-31T01:32:51;19.90;99.90
35563;DHT22;21665;40.108;18.302;2023-10-31T01:35:18;19.90;99.90
35563;DHT22;21665;40.108;18.302;2023-10-31T01:37:45;19.90;99.90
35563;DHT22;21665;40.108;18.302;2023-10-31T01:40:13;19.90;99.90
35563;DHT22;21665;40.108;18.302;2023-10-31T01:42:39;19.90;99.90
35563;DHT22;21665;40.108;18.302;2023-10-31T01:45:07;19.90;99.90
35563;DHT22;21665;40.108;18.302;2023-10-31T01:47:34;19.90;99.90
35563;DHT22;21665;40.108;18.302;2023-10-31T01:50:00;19.90;99.90
35563;DHT22;21665;40.108;18.302;2023-10-31T01:52:28;19.90;99.90
35563;DHT22;21665;40.108;18.302;2023-10-31T01:54:55;19.90;99.90
35563;DHT22;21665;40.108;18.302;2023-10-31T01:57:22;19.90;99.90
35563;DHT22;21665;40.108;18.302;2023-10-31T01:59:49;19.90;99.90
35563;DHT22;21665;40.108;18.302;2023-10-31T02:02:16;19.90;99.90
35563;DHT22;21665;40.108;18.302;2023-10-31T02:04:44;20.00;99.90
35563;DHT22;21665;40.108;18.302;2023-10-31T02:07:11;20.00;99.90
35563;DHT22;21665;40.108;18.302;2023-10-31T02:09:38;19.90;99.90
35563;DHT22;21665;40.108;18.302;2023-10-31T02:12:05;19.90;99.90
35563;DHT22;21665;40.108;18.302;2023-10-31T02:14:32;19.90;99.90
35563;DHT22;21665;40.108;18.302;2023-10-31T02:16:58;19.90;99.90
35563;DHT22;21665;40.108;18.302;2023-10-31T02:19:26;19.90;99.90
35563;DHT22;21665;40.108;18.302;2023-10-31T02:21:53;19.90;99.90
35563;DHT22;21665;40.108;18.302;2023-10-31T02:24:19;19.90;99.90
35563;DHT22;21665;40.108;18.302;2023-10-31T02:26:46;20.00;99.90
35563;DHT22;21665;40.108;18.302;2023-10-31T02:29:13;19.90;99.90
35563;DHT22;21665;40.108;18.302;2023-10-31T02:31:41;20.00;99.90
35563;DHT22;21665;40.108;18.302;2023-10-31T02:34:10;19.90;99.90
35563;DHT22;21665;40.108;18.302;2023-10-31T02:36:37;19.90;99.90
35563;DHT22;21665;40.108;18.302;2023-10-31T02:39:03;20.00;99.90
35563;DHT22;21665;40.108;18.302;2023-10-31T02:41:30;19.90;99.90
35563;DHT22;21665;40.108;18.302;2023-10-31T02:44:00;20.00;99.90
35563;DHT22;21665;40.108;18.302;2023-10-31T02:46:26;20.00;99.90
35563;DHT22;21665;40.108;18.302;2023-10-31T02:48:53;20.00;99.90
35563;DHT22;21665;40.108;18.302;2023-10-31T02:51:19;20.00;99.90
35563;DHT22;21665;40.108;18.302;2023-10-31T02:53:46;20.00;99.90
35563;DHT22;21665;40.108;18.302;2023-10-31T02:56:14;20.00;99.90
35563;DHT22;21665;40.108;18.302;2023-10-31T02:58:41;19.90;99.90
35563;DHT22;21665;40.108;18.302;2023-10-31T03:01:07;19.90;99.90
35563;DHT22;21665;40.108;18.302;2023-10-31T03:03:34;20.00;99.90
35563;DHT22;21665;40.108;18.302;2023-10-31T03:06:00;20.00;99.90
35563;DHT22;21665;40.108;18.302;2023-10-31T03:08:27;20.00;99.90
35563;DHT22;21665;40.108;18.302;2023-10-31T03:10:54;20.10;99.90
35563;DHT22;21665;40.108;18.302;2023-10-31T03:13:20;20.10;99.90
35563;DHT22;21665;40.108;18.302;2023-10-31T03:15:48;20.10;99.90
35563;DHT22;21665;40.108;18.302;2023-10-31T03:18:14;20.00;99.90
35563;DHT22;21665;40.108;18.302;2023-10-31T03:20:45;20.00;99.90
35563;DHT22;21665;40.108;18.302;2023-10-31T03:23:15;20.00;99.90
35563;DHT22;21665;40.108;18.302;2023-10-31T03:25:41;20.00;99.90
35563;DHT22;21665;40.108;18.302;2023-10-31T03:28:18;20.10;99.90
35563;DHT22;21665;40.108;18.302;2023-10-31T03:30:47;20.10;99.90
35563;DHT22;21665;40.108;18.302;2023-10-31T03:33:14;20.10;99.90
35563;DHT22;21665;40.108;18.302;2023-10-31T03:35:49;20.10;99.90
35563;DHT22;21665;40.108;18.302;2023-10-31T03:38:16;20.10;99.90
35563;DHT22;21665;40.108;18.302;2023-10-31T03:40:43;20.20;99.90
35563;DHT22;21665;40.108;18.302;2023-10-31T03:43:12;20.20;99.90
35563;DHT22;21665;40.108;18.302;2023-10-31T03:45:38;20.20;99.90
35563;DHT22;21665;40.108;18.302;2023-10-31T03:48:05;20.20;99.90
35563;DHT22;21665;40.108;18.302;2023-10-31T03:50:31;20.10;99.90
35563;DHT22;21665;40.108;18.302;2023-10-31T03:52:58;20.10;99.90
35563;DHT22;21665;40.108;18.302;2023-10-31T03:55:24;20.20;99.90
35563;DHT22;21665;40.108;18.302;2023-10-31T03:57:51;20.20;99.90
35563;DHT22;21665;40.108;18.302;2023-10-31T04:00:18;20.20;99.90
35563;DHT22;21665;40.108;18.302;2023-10-31T04:02:45;20.20;99.90
35563;DHT22;21665;40.108;18.302;2023-10-31T04:05:12;20.20;99.90
35563;DHT22;21665;40.108;18.302;2023-10-31T04:07:39;20.20;99.90
35563;DHT22;21665;40.108;18.302;2023-10-31T04:10:06;20.20;99.90
35563;DHT22;21665;40.108;18.302;2023-10-31T04:12:33;20.20;99.90
35563;DHT22;21665;40.108;18.302;2023-10-31T04:15:00;20.30;99.90
35563;DHT22;21665;40.108;18.302;2023-10-31T04:17:26;20.20;99.90
35563;DHT22;21665;40.108;18.302;2023-10-31T04:19:52;20.20;99.90
35563;DHT22;21665;40.108;18.302;2023-10-31T04:22:19;20.30;99.90
35563;DHT22;21665;40.108;18.302;2023-10-31T04:24:49;20.20;99.90
35563;DHT22;21665;40.108;18.302;2023-10-31T04:27:15;20.20;99.90
35563;DHT22;21665;40.108;18.302;2023-10-31T04:29:42;20.20;99.90
35563;DHT22;21665;40.108;18.302;2023-10-31T04:32:08;20.30;99.90
35563;DHT22;21665;40.108;18.302;2023-10-31T04:34:35;20.30;99.90
35563;DHT22;21665;40.108;18.302;2023-10-31T04:37:01;20.30;99.90
35563;DHT22;21665;40.108;18.302;2023-10-31T04:39:28;20.30;99.90
35563;DHT22;21665;40.108;18.302;2023-10-31T04:41:54;20.30;99.90
35563;DHT22;21665;40.108;18.302;2023-10-31T04:44:21;20.30;99.90
35563;DHT22;21665;40.108;18.302;2023-10-31T04:46:47;20.30;99.90
35563;DHT22;21665;40.108;18.302;2023-10-31T04:49:18;20.30;99.90
35563;DHT22;21665;40.108;18.302;2023-10-31T04:51:47;20.30;99.90
35563;DHT22;21665;40.108;18.302;2023-10-31T04:54:17;20.30;99.90
35563;DHT22;21665;40.108;18.302;2023-10-31T04:56:44;20.30;99.90
35563;DHT22;21665;40.108;18.302;2023-10-31T04:59:11;20.30;99.90
35563;DHT22;21665;40.108;18.302;2023-10-31T05:01:37;20.30;99.90
35563;DHT22;21665;40.108;18.302;2023-10-31T05:04:04;20.40;99.90
35563;DHT22;21665;40.108;18.302;2023-10-31T05:06:30;20.40;99.90
35563;DHT22;21665;40.108;18.302;2023-10-31T05:08:57;20.40;99.90
35563;DHT22;21665;40.108;18.302;2023-10-31T05:11:23;20.50;99.90
35563;DHT22;21665;40.108;18.302;2023-10-31T05:13:50;20.50;99.90
35563;DHT22;21665;40.108;18.302;2023-10-31T05:16:17;20.50;99.90
35563;DHT22;21665;40.108;18.302;2023-10-31T05:18:43;20.50;99.90
35563;DHT22;21665;40.108;18.302;2023-10-31T05:21:10;20.50;99.90
35563;DHT22;21665;40.108;18.302;2023-10-31T05:23:36;20.50;99.90
35563;DHT22;21665;40.108;18.302;2023-10-31T05:26:05;20.50;99.90
35563;DHT22;21665;40.108;18.302;2023-10-31T05:28:32;20.50;99.90
35563;DHT22;21665;40.108;18.302;2023-10-31T05:31:01;20.50;99.90
35563;DHT22;21665;40.108;18.302;2023-10-31T05:33:29;20.50;99.90
35563;DHT22;21665;40.108;18.302;2023-10-31T05:35:55;20.50;99.90
35563;DHT22;21665;40.108;18.302;2023-10-31T05:38:22;20.60;99.90
35563;DHT22;21665;40.108;18.302;2023-10-31T05:40:48;20.60;99.90
35563;DHT22;21665;40.108;18.302;2023-10-31T05:43:15;20.60;99.90
35563;DHT22;21665;40.108;18.302;2023-10-31T05:45:42;20.70;99.90
35563;DHT22;21665;40.108;18.302;2023-10-31T05:48:13;20.70;99.90
35563;DHT22;21665;40.108;18.302;2023-10-31T05:50:42;20.80;99.90
35563;DHT22;21665;40.108;18.302;2023-10-31T05:53:08;20.80;99.90
35563;DHT22;21665;40.108;18.302;2023-10-31T05:55:39;20.80;99.90
35563;DHT22;21665;40.108;18.302;2023-10-31T05:58:06;20.90;99.90
35563;DHT22;21665;40.108;18.302;2023-10-31T06:00:32;20.90;99.90
35563;DHT22;21665;40.108;18.302;2023-10-31T06:02:59;20.90;99.90
35563;DHT22;21665;40.108;18.302;2023-10-31T06:05:26;20.90;99.90
35563;DHT22;21665;40.108;18.302;2023-10-31T06:07:52;20.90;99.90
35563;DHT22;21665;40.108;18.302;2023-10-31T06:10:18;20.90;99.90
35563;DHT22;21665;40.108;18.302;2023-10-31T06:12:46;20.90;99.90
35563;DHT22;21665;40.108;18.302;2023-10-31T06:15:13;21.00;99.90
35563;DHT22;21665;40.108;18.302;2023-10-31T06:17:40;21.00;99.90
35563;DHT22;21665;40.108;18.302;2023-10-31T06:20:10;21.00;99.90
35563;DHT22;21665;40.108;18.302;2023-10-31T06:22:36;21.00;99.90
35563;DHT22;21665;40.108;18.302;2023-10-31T06:25:03;21.10;99.90
35563;DHT22;21665;40.108;18.302;2023-10-31T06:27:29;21.10;99.90
35563;DHT22;21665;40.108;18.302;2023-10-31T06:29:56;21.10;99.90
35563;DHT22;21665;40.108;18.302;2023-10-31T06:32:23;21.20;99.90
35563;DHT22;21665;40.108;18.302;2023-10-31T06:34:51;21.20;99.90
35563;DHT22;21665;40.108;18.302;2023-10-31T06:37:19;21.30;99.90
35563;DHT22;21665;40.108;18.302;2023-10-31T06:39:46;21.30;99.90
35563;DHT22;21665;40.108;18.302;2023-10-31T06:42:16;21.30;99.90
35563;DHT22;21665;40.108;18.302;2023-10-31T06:44:42;21.30;99.90
35563;DHT22;21665;40.108;18.302;2023-10-31T06:47:09;21.40;99.90
35563;DHT22;21665;40.108;18.302;2023-10-31T06:49:36;21.30;99.90
35563;DHT22;21665;40.108;18.302;2023-10-31T06:52:06;21.30;99.90
35563;DHT22;21665;40.108;18.302;2023-10-31T06:54:33;21.30;99.90
35563;DHT22;21665;40.108;18.302;2023-10-31T06:57:01;21.30;99.90
35563;DHT22;21665;40.108;18.302;2023-10-31T06:59:30;21.40;99.90
35563;DHT22;21665;40.108;18.302;2023-10-31T07:01:57;21.40;99.90
35563;DHT22;21665;40.108;18.302;2023-10-31T07:04:25;21.40;99.90
35563;DHT22;21665;40.108;18.302;2023-10-31T07:06:53;21.50;99.90
35563;DHT22;21665;40.108;18.302;2023-10-31T07:09:24;21.50;99.90
35563;DHT22;21665;40.108;18.302;2023-10-31T07:11:51;21.50;99.90
35563;DHT22;21665;40.108;18.302;2023-10-31T07:14:19;21.60;99.90
35563;DHT22;21665;40.108;18.302;2023-10-31T07:16:48;21.60;99.90
35563;DHT22;21665;40.108;18.302;2023-10-31T07:19:17;21.70;99.90
35563;DHT22;21665;40.108;18.302;2023-10-31T07:21:46;21.70;99.90
35563;DHT22;21665;40.108;18.302;2023-10-31T07:24:13;21.80;99.90
35563;DHT22;21665;40.108;18.302;2023-10-31T07:26:41;21.80;99.90
35563;DHT22;21665;40.108;18.302;2023-10-31T07:29:08;21.80;99.90
35563;DHT22;21665;40.108;18.302;2023-10-31T07:31:35;21.80;99.90
35563;DHT22;21665;40.108;18.302;2023-10-31T07:34:05;21.80;99.90
35563;DHT22;21665;40.108;18.302;2023-10-31T07:36:31;21.80;99.90
35563;DHT22;21665;40.108;18.302;2023-10-31T07:39:05;21.90;99.90
35563;DHT22;21665;40.108;18.302;2023-10-31T07:41:32;21.80;99.90
35563;DHT22;21665;40.108;18.302;2023-10-31T07:43:58;21.90;99.90
35563;DHT22;21665;40.108;18.302;2023-10-31T07:46:25;21.90;99.90
35563;DHT22;21665;40.108;18.302;2023-10-31T07:48:51;22.00;99.90
35563;DHT22;21665;40.108;18.302;2023-10-31T07:51:18;22.00;99.90
35563;DHT22;21665;40.108;18.302;2023-10-31T07:53:46;22.00;99.90
35563;DHT22;21665;40.108;18.302;2023-10-31T07:56:18;22.10;99.90
35563;DHT22;21665;40.108;18.302;2023-10-31T07:58:52;22.20;99.90
35563;DHT22;21665;40.108;18.302;2023-10-31T08:01:19;22.20;99.90
35563;DHT22;21665;40.108;18.302;2023-10-31T08:03:47;22.20;99.90
35563;DHT22;21665;40.108;18.302;2023-10-31T08:06:15;22.40;99.90
35563;DHT22;21665;40.108;18.302;2023-10-31T08:08:42;22.40;99.90
35563;DHT22;21665;40.108;18.302;2023-10-31T08:11:10;22.50;99.90
35563;DHT22;21665;40.108;18.302;2023-10-31T08:13:38;22.60;99.90
35563;DHT22;21665;40.108;18.302;2023-10-31T08:16:05;22.80;99.90
35563;DHT22;21665;40.108;18.302;2023-10-31T08:18:32;22.90;99.90
35563;DHT22;21665;40.108;18.302;2023-10-31T08:20:58;22.90;99.90
35563;DHT22;21665;40.108;18.302;2023-10-31T08:23:28;22.80;99.90
35563;DHT22;21665;40.108;18.302;2023-10-31T08:25:56;22.70;99.90
35563;DHT22;21665;40.108;18.302;2023-10-31T08:28:24;22.70;99.90
35563;DHT22;21665;40.108;18.302;2023-10-31T08:30:50;22.70;99.90
35563;DHT22;21665;40.108;18.302;2023-10-31T08:33:18;22.70;99.90
35563;DHT22;21665;40.108;18.302;2023-10-31T08:35:46;22.70;99.90
35563;DHT22;21665;40.108;18.302;2023-10-31T08:38:14;22.70;99.90
35563;DHT22;21665;40.108;18.302;2023-10-31T08:40:41;22.80;99.90
35563;DHT22;21665;40.108;18.302;2023-10-31T08:43:09;23.10;99.90
35563;DHT22;21665;40.108;18.302;2023-10-31T08:45:36;23.20;99.90
35563;DHT22;21665;40.108;18.302;2023-10-31T08:48:05;23.40;99.90
35563;DHT22;21665;40.108;18.302;2023-10-31T08:50:31;23.40;99.90
35563;DHT22;21665;40.108;18.302;2023-10-31T08:52:58;23.20;99.90
35563;DHT22;21665;40.108;18.302;2023-10-31T08:55:26;23.30;99.90
35563;DHT22;21665;40.108;18.302;2023-10-31T08:57:55;23.30;99.90
35563;DHT22;21665;40.108;18.302;2023-10-31T09:00:26;23.10;99.90
35563;DHT22;21665;40.108;18.302;2023-10-31T09:02:55;23.20;99.90
35563;DHT22;21665;40.108;18.302;2023-10-31T09:05:33;23.30;99.90
35563;DHT22;21665;40.108;18.302;2023-10-31T09:08:01;23.50;99.90
35563;DHT22;21665;40.108;18.302;2023-10-31T09:10:28;23.70;99.90
35563;DHT22;21665;40.108;18.302;2023-10-31T09:12:57;23.90;99.90
35563;DHT22;21665;40.108;18.302;2023-10-31T09:15:24;24.20;99.90
35563;DHT22;21665;40.108;18.302;2023-10-31T09:17:51;24.40;99.90
35563;DHT22;21665;40.108;18.302;2023-10-31T09:20:18;24.50;99.90
35563;DHT22;21665;40.108;18.302;2023-10-31T09:22:44;24.60;99.90
35563;DHT22;21665;40.108;18.302;2023-10-31T09:25:11;24.50;99.90
35563;DHT22;21665;40.108;18.302;2023-10-31T09:27:40;24.70;99.90
35563;DHT22;21665;40.108;18.302;2023-10-31T09:30:07;24.60;99.90
35563;DHT22;21665;40.108;18.302;2023-10-31T09:32:33;24.60;99.90
35563;DHT22;21665;40.108;18.302;2023-10-31T09:35:00;24.30;99.90
35563;DHT22;21665;40.108;18.302;2023-10-31T09:37:28;24.30;99.90
35563;DHT22;21665;40.108;18.302;2023-10-31T09:39:57;24.60;99.90
35563;DHT22;21665;40.108;18.302;2023-10-31T09:42:26;24.40;99.90
35563;DHT22;21665;40.108;18.302;2023-10-31T09:44:52;24.70;99.90
35563;DHT22;21665;40.108;18.302;2023-10-31T09:47:20;24.60;99.90
35563;DHT22;21665;40.108;18.302;2023-10-31T09:49:48;24.40;99.90
35563;DHT22;21665;40.108;18.302;2023-10-31T09:52:18;24.20;99.90
35563;DHT22;21665;40.108;18.302;2023-10-31T09:54:49;24.20;99.90
35563;DHT22;21665;40.108;18.302;2023-10-31T09:57:16;24.00;99.90
35563;DHT22;21665;40.108;18.302;2023-10-31T09:59:44;23.90;99.90
35563;DHT22;21665;40.108;18.302;2023-10-31T10:02:10;24.10;99.90
35563;DHT22;21665;40.108;18.302;2023-10-31T10:04:38;24.10;99.90
35563;DHT22;21665;40.108;18.302;2023-10-31T10:07:04;24.00;99.90
35563;DHT22;21665;40.108;18.302;2023-10-31T10:09:31;24.10;99.90
35563;DHT22;21665;40.108;18.302;2023-10-31T10:12:01;24.00;99.90
35563;DHT22;21665;40.108;18.302;2023-10-31T10:14:28;24.10;99.90
35563;DHT22;21665;40.108;18.302;2023-10-31T10:16:57;24.10;99.90
35563;DHT22;21665;40.108;18.302;2023-10-31T10:19:24;24.20;99.90
35563;DHT22;21665;40.108;18.302;2023-10-31T10:21:58;24.30;99.90
35563;DHT22;21665;40.108;18.302;2023-10-31T10:24:26;24.30;99.90
35563;DHT22;21665;40.108;18.302;2023-10-31T10:26:54;24.20;99.90
35563;DHT22;21665;40.108;18.302;2023-10-31T10:29:24;24.10;99.90
35563;DHT22;21665;40.108;18.302;2023-10-31T10:31:53;23.90;99.90
35563;DHT22;21665;40.108;18.302;2023-10-31T10:34:19;23.90;99.90
35563;DHT22;21665;40.108;18.302;2023-10-31T10:36:48;23.90;99.90
35563;DHT22;21665;40.108;18.302;2023-10-31T10:39:20;24.00;99.90
35563;DHT22;21665;40.108;18.302;2023-10-31T10:41:55;24.00;99.90
35563;DHT22;21665;40.108;18.302;2023-10-31T10:44:33;24.20;99.90
35563;DHT22;21665;40.108;18.302;2023-10-31T10:47:06;24.20;99.90
35563;DHT22;21665;40.108;18.302;2023-10-31T10:49:35;24.10;99.90
35563;DHT22;21665;40.108;18.302;2023-10-31T10:52:22;24.30;99.90
35563;DHT22;21665;40.108;18.302;2023-10-31T10:54:54;24.30;99.90
35563;DHT22;21665;40.108;18.302;2023-10-31T10:59:58;24.60;99.90
35563;DHT22;21665;40.108;18.302;2023-10-31T11:02:30;24.60;99.90
35563;DHT22;21665;40.108;18.302;2023-10-31T11:04:59;24.50;99.90
35563;DHT22;21665;40.108;18.302;2023-10-31T11:07:27;24.50;99.90
35563;DHT22;21665;40.108;18.302;2023-10-31T11:09:56;24.50;99.90
35563;DHT22;21665;40.108;18.302;2023-10-31T11:12:23;24.40;99.90
35563;DHT22;21665;40.108;18.302;2023-10-31T11:14:51;24.50;99.90
35563;DHT22;21665;40.108;18.302;2023-10-31T11:17:39;24.60;99.90
35563;DHT22;21665;40.108;18.302;2023-10-31T11:20:10;24.30;99.90
35563;DHT22;21665;40.108;18.302;2023-10-31T11:22:38;24.20;99.90
35563;DHT22;21665;40.108;18.302;2023-10-31T11:25:10;24.00;99.90
35563;DHT22;21665;40.108;18.302;2023-10-31T11:27:37;24.00;99.90
35563;DHT22;21665;40.108;18.302;2023-10-31T11:30:07;24.20;99.90
35563;DHT22;21665;40.108;18.302;2023-10-31T11:32:35;24.40;99.90
35563;DHT22;21665;40.108;18.302;2023-10-31T11:35:02;24.70;99.90
35563;DHT22;21665;40.108;18.302;2023-10-31T11:37:33;24.90;99.90
35563;DHT22;21665;40.108;18.302;2023-10-31T11:40:22;24.50;99.90
35563;DHT22;21665;40.108;18.302;2023-10-31T11:42:52;24.40;99.90
35563;DHT22;21665;40.108;18.302;2023-10-31T11:47:55;24.40;99.90
35563;DHT22;21665;40.108;18.302;2023-10-31T11:50:22;24.30;99.90
35563;DHT22;21665;40.108;18.302;2023-10-31T11:55:26;24.40;99.90
35563;DHT22;21665;40.108;18.302;2023-10-31T11:57:54;24.50;99.90
35563;DHT22;21665;40.108;18.302;2023-10-31T12:00:22;24.60;99.90
35563;DHT22;21665;40.108;18.302;2023-10-31T12:03:00;24.50;99.90
35563;DHT22;21665;40.108;18.302;2023-10-31T12:05:26;24.50;99.90
35563;DHT22;21665;40.108;18.302;2023-10-31T12:07:53;24.50;99.90
35563;DHT22;21665;40.108;18.302;2023-10-31T12:10:30;24.50;99.90
35563;DHT22;21665;40.108;18.302;2023-10-31T12:12:58;24.50;99.90
35563;DHT22;21665;40.108;18.302;2023-10-31T12:15:26;24.40;99.90
35563;DHT22;21665;40.108;18.302;2023-10-31T12:17:58;24.20;99.90
35563;DHT22;21665;40.108;18.302;2023-10-31T12:20:26;24.20;99.90
35563;DHT22;21665;40.108;18.302;2023-10-31T12:23:03;24.20;99.90
35563;DHT22;21665;40.108;18.302;2023-10-31T12:25:30;24.00;99.90
35563;DHT22;21665;40.108;18.302;2023-10-31T12:27:58;24.00;99.90
35563;DHT22;21665;40.108;18.302;2023-10-31T12:30:26;24.00;99.90
35563;DHT22;21665;40.108;18.302;2023-10-31T12:32:56;24.00;99.90
35563;DHT22;21665;40.108;18.302;2023-10-31T12:35:26;24.00;99.90
35563;DHT22;21665;40.108;18.302;2023-10-31T12:37:54;23.80;99.90
35563;DHT22;21665;40.108;18.302;2023-10-31T12:40:24;23.80;99.90
35563;DHT22;21665;40.108;18.302;2023-10-31T12:42:51;23.70;99.90
35563;DHT22;21665;40.108;18.302;2023-10-31T12:45:20;23.70;99.90
35563;DHT22;21665;40.108;18.302;2023-10-31T12:48:04;23.70;99.90
35563;DHT22;21665;40.108;18.302;2023-10-31T12:50:31;23.70;99.90
35563;DHT22;21665;40.108;18.302;2023-10-31T12:52:58;23.70;99.90
35563;DHT22;21665;40.108;18.302;2023-10-31T12:55:30;23.60;99.90
35563;DHT22;21665;40.108;18.302;2023-10-31T12:57:58;23.50;99.90
35563;DHT22;21665;40.108;18.302;2023-10-31T13:00:32;23.50;99.90
35563;DHT22;21665;40.108;18.302;2023-10-31T13:03:01;23.60;99.90
35563;DHT22;21665;40.108;18.302;2023-10-31T13:05:30;23.50;99.90
35563;DHT22;21665;40.108;18.302;2023-10-31T13:08:00;23.60;99.90
35563;DHT22;21665;40.108;18.302;2023-10-31T13:10:30;23.50;99.90
35563;DHT22;21665;40.108;18.302;2023-10-31T13:12:59;23.60;99.90
35563;DHT22;21665;40.108;18.302;2023-10-31T13:15:27;23.60;99.90
35563;DHT22;21665;40.108;18.302;2023-10-31T13:17:56;23.60;99.90
35563;DHT22;21665;40.108;18.302;2023-10-31T13:20:23;23.60;99.90
35563;DHT22;21665;40.108;18.302;2023-10-31T13:22:49;23.60;99.90
35563;DHT22;21665;40.108;18.302;2023-10-31T13:25:17;23.50;99.90
35563;DHT22;21665;40.108;18.302;2023-10-31T13:27:44;23.50;99.90
35563;DHT22;21665;40.108;18.302;2023-10-31T13:30:14;23.50;99.90
35563;DHT22;21665;40.108;18.302;2023-10-31T13:32:44;23.50;99.90
35563;DHT22;21665;40.108;18.302;2023-10-31T13:35:11;23.60;99.90
35563;DHT22;21665;40.108;18.302;2023-10-31T13:37:38;23.70;99.90
35563;DHT22;21665;40.108;18.302;2023-10-31T13:40:04;23.70;99.90
35563;DHT22;21665;40.108;18.302;2023-10-31T13:42:31;23.60;99.90
35563;DHT22;21665;40.108;18.302;2023-10-31T13:44:58;23.50;99.90
35563;DHT22;21665;40.108;18.302;2023-10-31T13:47:24;23.50;99.90
35563;DHT22;21665;40.108;18.302;2023-10-31T13:49:50;23.40;99.90
35563;DHT22;21665;40.108;18.302;2023-10-31T13:52:17;23.40;99.90
35563;DHT22;21665;40.108;18.302;2023-10-31T13:54:43;23.40;99.90
35563;DHT22;21665;40.108;18.302;2023-10-31T13:57:10;23.30;99.90
35563;DHT22;21665;40.108;18.302;2023-10-31T13:59:41;23.30;99.90
35563;DHT22;21665;40.108;18.302;2023-10-31T14:02:07;23.30;99.90
35563;DHT22;21665;40.108;18.302;2023-10-31T14:04:34;23.40;99.90
35563;DHT22;21665;40.108;18.302;2023-10-31T14:07:02;23.40;99.90
35563;DHT22;21665;40.108;18.302;2023-10-31T14:09:31;23.30;99.90
35563;DHT22;21665;40.108;18.302;2023-10-31T14:11:57;23.10;99.90
35563;DHT22;21665;40.108;18.302;2023-10-31T14:14:25;23.10;99.90
35563;DHT22;21665;40.108;18.302;2023-10-31T14:16:51;23.10;99.90
35563;DHT22;21665;40.108;18.302;2023-10-31T14:19:20;23.00;99.90
35563;DHT22;21665;40.108;18.302;2023-10-31T14:21:47;23.00;99.90
35563;DHT22;21665;40.108;18.302;2023-10-31T14:24:13;23.00;99.90
35563;DHT22;21665;40.108;18.302;2023-10-31T14:26:40;23.00;99.90
35563;DHT22;21665;40.108;18.302;2023-10-31T14:29:10;23.00;99.90
35563;DHT22;21665;40.108;18.302;2023-10-31T14:31:42;23.00;99.90
35563;DHT22;21665;40.108;18.302;2023-10-31T14:34:11;23.00;99.90
35563;DHT22;21665;40.108;18.302;2023-10-31T14:36:37;23.00;99.90
35563;DHT22;21665;40.108;18.302;2023-10-31T14:39:05;23.00;99.90
35563;DHT22;21665;40.108;18.302;2023-10-31T14:41:33;22.90;99.90
35563;DHT22;21665;40.108;18.302;2023-10-31T14:44:01;22.90;99.90
35563;DHT22;21665;40.108;18.302;2023-10-31T14:46:29;22.90;99.90
35563;DHT22;21665;40.108;18.302;2023-10-31T14:48:59;22.90;99.90
35563;DHT22;21665;40.108;18.302;2023-10-31T14:51:26;22.90;99.90
35563;DHT22;21665;40.108;18.302;2023-10-31T14:53:53;22.80;99.90
35563;DHT22;21665;40.108;18.302;2023-10-31T14:56:20;22.80;99.90
35563;DHT22;21665;40.108;18.302;2023-10-31T14:58:49;22.80;99.90
35563;DHT22;21665;40.108;18.302;2023-10-31T15:01:15;22.80;99.90
35563;DHT22;21665;40.108;18.302;2023-10-31T15:03:42;22.70;99.90
35563;DHT22;21665;40.108;18.302;2023-10-31T15:06:08;22.70;99.90
35563;DHT22;21665;40.108;18.302;2023-10-31T15:08:35;22.70;99.90
35563;DHT22;21665;40.108;18.302;2023-10-31T15:11:02;22.70;99.90
35563;DHT22;21665;40.108;18.302;2023-10-31T15:13:29;22.70;99.90
35563;DHT22;21665;40.108;18.302;2023-10-31T15:15:57;22.70;99.90
35563;DHT22;21665;40.108;18.302;2023-10-31T15:18:24;22.60;99.90
35563;DHT22;21665;40.108;18.302;2023-10-31T15:20:50;22.50;99.90
35563;DHT22;21665;40.108;18.302;2023-10-31T15:23:17;22.50;99.90
35563;DHT22;21665;40.108;18.302;2023-10-31T15:25:49;22.50;99.90
35563;DHT22;21665;40.108;18.302;2023-10-31T15:28:16;22.50;99.90